sensor_id;sensor_type;location;lat;lon;timestamp;P1;durP1;ratioP1;P2;durP2;ratioP2
15706;SDS011;7953;54.302;10.128;2022-12-29T00:00:17;5.90;;;5.40;;
15706;SDS011;7953;54.302;10.128;2022-12-29T00:02:44;5.83;;;5.23;;
15706;SDS011;7953;54.302;10.128;2022-12-29T00:05:11;5.40;;;4.90;;
15706;SDS011;7953;54.302;10.128;2022-12-29T00:07:38;6.67;;;6.07;;
15706;SDS011;7953;54.302;10.128;2022-12-29T00:10:07;7.03;;;6.40;;
15706;SDS011;7953;54.302;10.128;2022-12-29T00:12:34;6.43;;;5.53;;
15706;SDS011;7953;54.302;10.128;2022-12-29T00:15:18;6.73;;;6.13;;
15706;SDS011;7953;54.302;10.128;2022-12-29T00:18:03;7.47;;;6.77;;
15706;SDS011;7953;54.302;10.128;2022-12-29T00:20:32;7.87;;;7.17;;
15706;SDS011;7953;54.302;10.128;2022-12-29T00:23:17;7.90;;;7.10;;
15706;SDS011;7953;54.302;10.128;2022-12-29T00:26:04;8.53;;;7.33;;
15706;SDS011;7953;54.302;10.128;2022-12-29T00:28:52;8.00;;;7.30;;
15706;SDS011;7953;54.302;10.128;2022-12-29T00:31:37;8.97;;;7.97;;
15706;SDS011;7953;54.302;10.128;2022-12-29T00:34:21;9.00;;;7.00;;
15706;SDS011;7953;54.302;10.128;2022-12-29T00:37:05;9.13;;;7.50;;
15706;SDS011;7953;54.302;10.128;2022-12-29T00:39:32;8.80;;;8.00;;
15706;SDS011;7953;54.302;10.128;2022-12-29T00:42:18;8.20;;;7.50;;
15706;SDS011;7953;54.302;10.128;2022-12-29T00:45:02;10.03;;;8.00;;
15706;SDS011;7953;54.302;10.128;2022-12-29T00:47:29;9.23;;;8.43;;
15706;SDS011;7953;54.302;10.128;2022-12-29T00:49:56;9.30;;;8.40;;
15706;SDS011;7953;54.302;10.128;2022-12-29T00:52:22;9.53;;;8.63;;
15706;SDS011;7953;54.302;10.128;2022-12-29T00:54:49;8.90;;;8.00;;
15706;SDS011;7953;54.302;10.128;2022-12-29T00:57:17;9.30;;;8.50;;
15706;SDS011;7953;54.302;10.128;2022-12-29T00:59:44;10.27;;;9.27;;
15706;SDS011;7953;54.302;10.128;2022-12-29T01:02:11;11.07;;;9.67;;
15706;SDS011;7953;54.302;10.128;2022-12-29T01:04:38;10.53;;;9.53;;
15706;SDS011;7953;54.302;10.128;2022-12-29T01:07:05;11.97;;;9.37;;
15706;SDS011;7953;54.302;10.128;2022-12-29T01:09:32;10.47;;;9.10;;
15706;SDS011;7953;54.302;10.128;2022-12-29T01:12:18;11.07;;;9.17;;
15706;SDS011;7953;54.302;10.128;2022-12-29T01:15:05;9.70;;;8.80;;
15706;SDS011;7953;54.302;10.128;2022-12-29T01:17:33;10.40;;;9.50;;
15706;SDS011;7953;54.302;10.128;2022-12-29T01:20:00;11.37;;;10.27;;
15706;SDS011;7953;54.302;10.128;2022-12-29T01:22:28;11.23;;;10.23;;
15706;SDS011;7953;54.302;10.128;2022-12-29T01:24:55;11.20;;;10.10;;
15706;SDS011;7953;54.302;10.128;2022-12-29T01:27:23;11.27;;;10.17;;
15706;SDS011;7953;54.302;10.128;2022-12-29T01:29:50;11.33;;;10.33;;
15706;SDS011;7953;54.302;10.128;2022-12-29T01:32:16;11.40;;;10.40;;
15706;SDS011;7953;54.302;10.128;2022-12-29T01:34:43;10.57;;;9.50;;
15706;SDS011;7953;54.302;10.128;2022-12-29T01:37:10;11.87;;;10.73;;
15706;SDS011;7953;54.302;10.128;2022-12-29T01:39:37;10.77;;;9.67;;
15706;SDS011;7953;54.302;10.128;2022-12-29T01:42:04;11.87;;;10.77;;
15706;SDS011;7953;54.302;10.128;2022-12-29T01:44:49;11.50;;;10.40;;
15706;SDS011;7953;54.302;10.128;2022-12-29T01:47:20;10.80;;;9.70;;
15706;SDS011;7953;54.302;10.128;2022-12-29T01:49:52;11.13;;;10.13;;
15706;SDS011;7953;54.302;10.128;2022-12-29T01:52:21;10.83;;;9.73;;
15706;SDS011;7953;54.302;10.128;2022-12-29T01:54:51;9.73;;;8.73;;
15706;SDS011;7953;54.302;10.128;2022-12-29T01:57:20;10.87;;;9.50;;
15706;SDS011;7953;54.302;10.128;2022-12-29T01:59:52;11.00;;;10.00;;
15706;SDS011;7953;54.302;10.128;2022-12-29T02:02:23;11.80;;;9.90;;
15706;SDS011;7953;54.302;10.128;2022-12-29T02:04:50;11.93;;;10.73;;
15706;SDS011;7953;54.302;10.128;2022-12-29T02:07:19;10.63;;;9.53;;
15706;SDS011;7953;54.302;10.128;2022-12-29T02:09:48;11.30;;;10.20;;
15706;SDS011;7953;54.302;10.128;2022-12-29T02:12:17;11.30;;;10.30;;
15706;SDS011;7953;54.302;10.128;2022-12-29T02:14:47;10.70;;;9.70;;
15706;SDS011;7953;54.302;10.128;2022-12-29T02:17:18;10.00;;;9.10;;
15706;SDS011;7953;54.302;10.128;2022-12-29T02:20:15;9.87;;;9.03;;
15706;SDS011;7953;54.302;10.128;2022-12-29T02:23:13;10.17;;;9.20;;
15706;SDS011;7953;54.302;10.128;2022-12-29T02:26:00;9.83;;;8.87;;
15706;SDS011;7953;54.302;10.128;2022-12-29T02:31:39;10.67;;;9.63;;
15706;SDS011;7953;54.302;10.128;2022-12-29T02:34:13;10.67;;;9.60;;
15706;SDS011;7953;54.302;10.128;2022-12-29T02:36:51;10.27;;;9.37;;
15706;SDS011;7953;54.302;10.128;2022-12-29T02:39:27;10.60;;;9.60;;
15706;SDS011;7953;54.302;10.128;2022-12-29T02:42:03;11.37;;;10.27;;
15706;SDS011;7953;54.302;10.128;2022-12-29T02:44:36;10.43;;;9.33;;
15706;SDS011;7953;54.302;10.128;2022-12-29T02:47:15;10.53;;;8.50;;
15706;SDS011;7953;54.302;10.128;2022-12-29T02:49:51;10.90;;;9.13;;
15706;SDS011;7953;54.302;10.128;2022-12-29T02:52:25;10.53;;;9.63;;
15706;SDS011;7953;54.302;10.128;2022-12-29T02:54:57;10.83;;;9.87;;
15706;SDS011;7953;54.302;10.128;2022-12-29T02:57:31;12.03;;;9.90;;
15706;SDS011;7953;54.302;10.128;2022-12-29T03:00:01;10.73;;;9.73;;
15706;SDS011;7953;54.302;10.128;2022-12-29T03:05:31;11.37;;;10.37;;
15706;SDS011;7953;54.302;10.128;2022-12-29T03:08:14;11.17;;;10.17;;
15706;SDS011;7953;54.302;10.128;2022-12-29T03:10:50;10.83;;;9.83;;
15706;SDS011;7953;54.302;10.128;2022-12-29T03:13:25;10.80;;;9.80;;
15706;SDS011;7953;54.302;10.128;2022-12-29T03:16:19;13.33;;;10.37;;
15706;SDS011;7953;54.302;10.128;2022-12-29T03:18:54;13.77;;;10.80;;
15706;SDS011;7953;54.302;10.128;2022-12-29T03:21:28;11.53;;;10.43;;
15706;SDS011;7953;54.302;10.128;2022-12-29T03:24:17;11.90;;;10.30;;
15706;SDS011;7953;54.302;10.128;2022-12-29T03:26:48;12.13;;;10.77;;
15706;SDS011;7953;54.302;10.128;2022-12-29T03:29:17;10.27;;;9.27;;
15706;SDS011;7953;54.302;10.128;2022-12-29T03:31:46;8.60;;;7.83;;
15706;SDS011;7953;54.302;10.128;2022-12-29T03:34:17;10.77;;;9.77;;
15706;SDS011;7953;54.302;10.128;2022-12-29T03:36:48;9.90;;;9.00;;
15706;SDS011;7953;54.302;10.128;2022-12-29T03:39:18;10.60;;;9.60;;
15706;SDS011;7953;54.302;10.128;2022-12-29T03:41:48;11.03;;;10.03;;
15706;SDS011;7953;54.302;10.128;2022-12-29T03:44:20;10.13;;;9.23;;
15706;SDS011;7953;54.302;10.128;2022-12-29T03:46:47;11.10;;;10.03;;
15706;SDS011;7953;54.302;10.128;2022-12-29T03:49:14;10.90;;;9.83;;
15706;SDS011;7953;54.302;10.128;2022-12-29T03:51:42;10.57;;;8.47;;
15706;SDS011;7953;54.302;10.128;2022-12-29T03:54:09;9.93;;;9.00;;
15706;SDS011;7953;54.302;10.128;2022-12-29T03:56:36;11.17;;;9.87;;
15706;SDS011;7953;54.302;10.128;2022-12-29T03:59:03;10.37;;;9.37;;
15706;SDS011;7953;54.302;10.128;2022-12-29T04:01:30;9.83;;;8.93;;
15706;SDS011;7953;54.302;10.128;2022-12-29T04:03:57;9.97;;;8.97;;
15706;SDS011;7953;54.302;10.128;2022-12-29T04:06:23;10.37;;;9.47;;
15706;SDS011;7953;54.302;10.128;2022-12-29T04:08:52;10.07;;;9.13;;
15706;SDS011;7953;54.302;10.128;2022-12-29T04:11:18;9.97;;;9.07;;
15706;SDS011;7953;54.302;10.128;2022-12-29T04:13:46;9.10;;;8.30;;
15706;SDS011;7953;54.302;10.128;2022-12-29T04:16:12;9.27;;;8.43;;
15706;SDS011;7953;54.302;10.128;2022-12-29T04:18:39;9.00;;;8.20;;
15706;SDS011;7953;54.302;10.128;2022-12-29T04:21:06;9.77;;;8.93;;
15706;SDS011;7953;54.302;10.128;2022-12-29T04:23:34;9.43;;;8.07;;
15706;SDS011;7953;54.302;10.128;2022-12-29T04:26:04;10.30;;;9.07;;
15706;SDS011;7953;54.302;10.128;2022-12-29T04:28:32;9.30;;;8.47;;
15706;SDS011;7953;54.302;10.128;2022-12-29T04:30:59;10.10;;;9.17;;
15706;SDS011;7953;54.302;10.128;2022-12-29T04:33:26;10.60;;;9.70;;
15706;SDS011;7953;54.302;10.128;2022-12-29T04:35:53;9.53;;;8.63;;
15706;SDS011;7953;54.302;10.128;2022-12-29T04:38:21;9.77;;;8.87;;
15706;SDS011;7953;54.302;10.128;2022-12-29T04:40:48;9.47;;;8.67;;
15706;SDS011;7953;54.302;10.128;2022-12-29T04:43:17;9.83;;;8.83;;
15706;SDS011;7953;54.302;10.128;2022-12-29T04:45:44;9.47;;;8.63;;
15706;SDS011;7953;54.302;10.128;2022-12-29T04:48:12;8.97;;;7.90;;
15706;SDS011;7953;54.302;10.128;2022-12-29T04:50:40;7.37;;;6.73;;
15706;SDS011;7953;54.302;10.128;2022-12-29T04:53:07;9.17;;;8.27;;
15706;SDS011;7953;54.302;10.128;2022-12-29T04:55:34;8.30;;;7.53;;
15706;SDS011;7953;54.302;10.128;2022-12-29T04:58:01;7.80;;;7.07;;
15706;SDS011;7953;54.302;10.128;2022-12-29T05:00:29;7.90;;;7.20;;
15706;SDS011;7953;54.302;10.128;2022-12-29T05:02:56;8.43;;;7.63;;
15706;SDS011;7953;54.302;10.128;2022-12-29T05:05:23;8.53;;;7.43;;
15706;SDS011;7953;54.302;10.128;2022-12-29T05:07:49;6.90;;;6.30;;
15706;SDS011;7953;54.302;10.128;2022-12-29T05:10:16;7.90;;;7.30;;
15706;SDS011;7953;54.302;10.128;2022-12-29T05:12:43;8.37;;;7.60;;
15706;SDS011;7953;54.302;10.128;2022-12-29T05:15:10;7.33;;;6.70;;
15706;SDS011;7953;54.302;10.128;2022-12-29T05:17:39;7.03;;;6.30;;
15706;SDS011;7953;54.302;10.128;2022-12-29T05:20:06;6.50;;;6.00;;
15706;SDS011;7953;54.302;10.128;2022-12-29T05:22:34;6.87;;;6.27;;
15706;SDS011;7953;54.302;10.128;2022-12-29T05:25:01;7.80;;;7.00;;
15706;SDS011;7953;54.302;10.128;2022-12-29T05:27:27;7.10;;;6.50;;
15706;SDS011;7953;54.302;10.128;2022-12-29T05:29:54;7.27;;;6.67;;
15706;SDS011;7953;54.302;10.128;2022-12-29T05:32:21;6.10;;;5.50;;
15706;SDS011;7953;54.302;10.128;2022-12-29T05:34:49;6.67;;;6.07;;
15706;SDS011;7953;54.302;10.128;2022-12-29T05:37:16;9.17;;;6.90;;
15706;SDS011;7953;54.302;10.128;2022-12-29T05:39:43;7.40;;;6.80;;
15706;SDS011;7953;54.302;10.128;2022-12-29T05:42:10;6.87;;;6.30;;
15706;SDS011;7953;54.302;10.128;2022-12-29T05:44:37;7.43;;;6.83;;
15706;SDS011;7953;54.302;10.128;2022-12-29T05:47:04;6.70;;;6.10;;
15706;SDS011;7953;54.302;10.128;2022-12-29T05:49:31;7.07;;;6.13;;
15706;SDS011;7953;54.302;10.128;2022-12-29T05:51:59;6.93;;;6.23;;
15706;SDS011;7953;54.302;10.128;2022-12-29T05:54:26;6.90;;;6.30;;
15706;SDS011;7953;54.302;10.128;2022-12-29T05:56:53;6.00;;;5.50;;
15706;SDS011;7953;54.302;10.128;2022-12-29T05:59:20;5.57;;;5.10;;
15706;SDS011;7953;54.302;10.128;2022-12-29T06:01:47;6.13;;;5.63;;
15706;SDS011;7953;54.302;10.128;2022-12-29T06:04:14;5.40;;;5.00;;
15706;SDS011;7953;54.302;10.128;2022-12-29T06:06:41;5.60;;;5.13;;
15706;SDS011;7953;54.302;10.128;2022-12-29T06:09:10;5.63;;;5.13;;
15706;SDS011;7953;54.302;10.128;2022-12-29T06:11:37;4.93;;;4.50;;
15706;SDS011;7953;54.302;10.128;2022-12-29T06:14:04;3.43;;;3.20;;
15706;SDS011;7953;54.302;10.128;2022-12-29T06:16:31;3.90;;;3.60;;
15706;SDS011;7953;54.302;10.128;2022-12-29T06:18:58;3.80;;;3.50;;
15706;SDS011;7953;54.302;10.128;2022-12-29T06:21:24;3.60;;;3.30;;
15706;SDS011;7953;54.302;10.128;2022-12-29T06:23:51;3.80;;;3.50;;
15706;SDS011;7953;54.302;10.128;2022-12-29T06:26:20;3.87;;;3.57;;
15706;SDS011;7953;54.302;10.128;2022-12-29T06:28:46;3.60;;;3.30;;
15706;SDS011;7953;54.302;10.128;2022-12-29T06:31:13;6.20;;;5.20;;
15706;SDS011;7953;54.302;10.128;2022-12-29T06:33:40;4.60;;;4.20;;
15706;SDS011;7953;54.302;10.128;2022-12-29T06:36:07;5.00;;;4.00;;
15706;SDS011;7953;54.302;10.128;2022-12-29T06:38:34;4.63;;;4.23;;
15706;SDS011;7953;54.302;10.128;2022-12-29T06:41:01;3.80;;;3.50;;
15706;SDS011;7953;54.302;10.128;2022-12-29T06:43:29;4.60;;;4.20;;
15706;SDS011;7953;54.302;10.128;2022-12-29T06:45:57;5.73;;;5.10;;
15706;SDS011;7953;54.302;10.128;2022-12-29T06:48:24;5.97;;;5.37;;
15706;SDS011;7953;54.302;10.128;2022-12-29T06:50:51;5.17;;;4.73;;
15706;SDS011;7953;54.302;10.128;2022-12-29T06:53:18;6.00;;;5.10;;
15706;SDS011;7953;54.302;10.128;2022-12-29T06:55:45;4.10;;;3.80;;
15706;SDS011;7953;54.302;10.128;2022-12-29T06:58:11;4.27;;;3.97;;
15706;SDS011;7953;54.302;10.128;2022-12-29T07:00:40;4.43;;;4.07;;
15706;SDS011;7953;54.302;10.128;2022-12-29T07:03:06;4.90;;;4.40;;
15706;SDS011;7953;54.302;10.128;2022-12-29T07:05:33;5.73;;;5.23;;
15706;SDS011;7953;54.302;10.128;2022-12-29T07:08:00;4.13;;;3.67;;
15706;SDS011;7953;54.302;10.128;2022-12-29T07:10:27;4.03;;;3.63;;
15706;SDS011;7953;54.302;10.128;2022-12-29T07:12:54;4.40;;;4.00;;
15706;SDS011;7953;54.302;10.128;2022-12-29T07:15:21;4.10;;;3.80;;
15706;SDS011;7953;54.302;10.128;2022-12-29T07:17:49;4.17;;;3.77;;
15706;SDS011;7953;54.302;10.128;2022-12-29T07:20:16;3.80;;;3.40;;
15706;SDS011;7953;54.302;10.128;2022-12-29T07:22:44;3.43;;;3.13;;
15706;SDS011;7953;54.302;10.128;2022-12-29T07:25:12;3.20;;;2.90;;
15706;SDS011;7953;54.302;10.128;2022-12-29T07:27:39;3.60;;;3.27;;
15706;SDS011;7953;54.302;10.128;2022-12-29T07:30:06;3.20;;;2.90;;
15706;SDS011;7953;54.302;10.128;2022-12-29T07:32:34;2.50;;;2.30;;
15706;SDS011;7953;54.302;10.128;2022-12-29T07:35:02;2.57;;;2.10;;
15706;SDS011;7953;54.302;10.128;2022-12-29T07:37:29;2.30;;;2.20;;
15706;SDS011;7953;54.302;10.128;2022-12-29T07:39:56;3.63;;;2.47;;
15706;SDS011;7953;54.302;10.128;2022-12-29T07:42:23;2.80;;;2.60;;
15706;SDS011;7953;54.302;10.128;2022-12-29T07:44:50;2.97;;;2.30;;
15706;SDS011;7953;54.302;10.128;2022-12-29T07:47:17;3.40;;;2.03;;
15706;SDS011;7953;54.302;10.128;2022-12-29T07:49:44;2.20;;;1.90;;
15706;SDS011;7953;54.302;10.128;2022-12-29T07:52:13;2.27;;;2.03;;
15706;SDS011;7953;54.302;10.128;2022-12-29T07:54:40;3.70;;;1.97;;
15706;SDS011;7953;54.302;10.128;2022-12-29T07:57:07;3.43;;;1.90;;
15706;SDS011;7953;54.302;10.128;2022-12-29T07:59:34;4.20;;;2.37;;
15706;SDS011;7953;54.302;10.128;2022-12-29T08:02:00;5.37;;;3.30;;
15706;SDS011;7953;54.302;10.128;2022-12-29T08:04:27;2.63;;;2.10;;
15706;SDS011;7953;54.302;10.128;2022-12-29T08:06:54;2.03;;;1.57;;
15706;SDS011;7953;54.302;10.128;2022-12-29T08:09:22;3.03;;;1.33;;
15706;SDS011;7953;54.302;10.128;2022-12-29T08:11:49;1.70;;;1.60;;
15706;SDS011;7953;54.302;10.128;2022-12-29T08:14:16;2.40;;;1.70;;
15706;SDS011;7953;54.302;10.128;2022-12-29T08:16:43;2.07;;;1.80;;
15706;SDS011;7953;54.302;10.128;2022-12-29T08:19:10;2.90;;;1.50;;
15706;SDS011;7953;54.302;10.128;2022-12-29T08:21:37;1.60;;;1.50;;
15706;SDS011;7953;54.302;10.128;2022-12-29T08:24:04;2.43;;;1.10;;
15706;SDS011;7953;54.302;10.128;2022-12-29T08:26:33;3.00;;;1.40;;
15706;SDS011;7953;54.302;10.128;2022-12-29T08:29:00;4.30;;;1.90;;
15706;SDS011;7953;54.302;10.128;2022-12-29T08:31:27;4.43;;;1.43;;
15706;SDS011;7953;54.302;10.128;2022-12-29T08:33:54;4.83;;;1.80;;
15706;SDS011;7953;54.302;10.128;2022-12-29T08:36:20;3.73;;;1.70;;
15706;SDS011;7953;54.302;10.128;2022-12-29T08:38:47;5.93;;;2.37;;
15706;SDS011;7953;54.302;10.128;2022-12-29T08:41:14;4.77;;;1.30;;
15706;SDS011;7953;54.302;10.128;2022-12-29T08:43:44;5.53;;;2.93;;
15706;SDS011;7953;54.302;10.128;2022-12-29T08:46:11;5.50;;;2.07;;
15706;SDS011;7953;54.302;10.128;2022-12-29T08:48:38;7.40;;;2.13;;
15706;SDS011;7953;54.302;10.128;2022-12-29T08:51:05;4.60;;;2.73;;
15706;SDS011;7953;54.302;10.128;2022-12-29T08:53:32;3.53;;;1.57;;
15706;SDS011;7953;54.302;10.128;2022-12-29T08:56:00;6.07;;;2.03;;
15706;SDS011;7953;54.302;10.128;2022-12-29T08:58:27;11.67;;;6.07;;
15706;SDS011;7953;54.302;10.128;2022-12-29T09:00:56;7.77;;;4.33;;
15706;SDS011;7953;54.302;10.128;2022-12-29T09:03:24;6.23;;;1.97;;
15706;SDS011;7953;54.302;10.128;2022-12-29T09:05:51;11.17;;;3.80;;
15706;SDS011;7953;54.302;10.128;2022-12-29T09:08:19;6.10;;;2.27;;
15706;SDS011;7953;54.302;10.128;2022-12-29T09:10:47;4.57;;;1.60;;
15706;SDS011;7953;54.302;10.128;2022-12-29T09:13:14;5.07;;;2.47;;
15706;SDS011;7953;54.302;10.128;2022-12-29T09:15:42;8.23;;;4.83;;
15706;SDS011;7953;54.302;10.128;2022-12-29T09:18:10;4.97;;;2.40;;
15706;SDS011;7953;54.302;10.128;2022-12-29T09:20:38;4.60;;;2.30;;
15706;SDS011;7953;54.302;10.128;2022-12-29T09:23:05;9.77;;;4.23;;
15706;SDS011;7953;54.302;10.128;2022-12-29T09:25:32;8.67;;;4.57;;
15706;SDS011;7953;54.302;10.128;2022-12-29T09:27:59;5.27;;;2.53;;
15706;SDS011;7953;54.302;10.128;2022-12-29T09:30:29;4.40;;;2.10;;
15706;SDS011;7953;54.302;10.128;2022-12-29T09:32:56;5.90;;;1.30;;
15706;SDS011;7953;54.302;10.128;2022-12-29T09:35:24;9.33;;;2.63;;
15706;SDS011;7953;54.302;10.128;2022-12-29T09:37:51;5.40;;;1.90;;
15706;SDS011;7953;54.302;10.128;2022-12-29T09:40:22;6.33;;;2.63;;
15706;SDS011;7953;54.302;10.128;2022-12-29T09:43:03;5.20;;;2.73;;
15706;SDS011;7953;54.302;10.128;2022-12-29T09:45:40;7.47;;;3.10;;
15706;SDS011;7953;54.302;10.128;2022-12-29T09:48:11;8.97;;;2.80;;
15706;SDS011;7953;54.302;10.128;2022-12-29T09:50:43;6.03;;;2.30;;
15706;SDS011;7953;54.302;10.128;2022-12-29T09:53:14;8.03;;;1.73;;
15706;SDS011;7953;54.302;10.128;2022-12-29T09:55:46;5.13;;;2.20;;
15706;SDS011;7953;54.302;10.128;2022-12-29T09:58:15;7.97;;;1.87;;
15706;SDS011;7953;54.302;10.128;2022-12-29T10:00:48;5.77;;;1.83;;
15706;SDS011;7953;54.302;10.128;2022-12-29T10:03:19;8.43;;;2.10;;
15706;SDS011;7953;54.302;10.128;2022-12-29T10:05:51;7.47;;;2.37;;
15706;SDS011;7953;54.302;10.128;2022-12-29T10:08:27;7.00;;;2.13;;
15706;SDS011;7953;54.302;10.128;2022-12-29T10:11:03;7.53;;;2.20;;
15706;SDS011;7953;54.302;10.128;2022-12-29T10:13:42;10.43;;;1.80;;
15706;SDS011;7953;54.302;10.128;2022-12-29T10:16:17;8.67;;;3.50;;
15706;SDS011;7953;54.302;10.128;2022-12-29T10:18:53;10.77;;;2.77;;
15706;SDS011;7953;54.302;10.128;2022-12-29T10:21:36;8.50;;;3.93;;
15706;SDS011;7953;54.302;10.128;2022-12-29T10:24:11;11.53;;;6.53;;
15706;SDS011;7953;54.302;10.128;2022-12-29T10:26:39;9.97;;;5.10;;
15706;SDS011;7953;54.302;10.128;2022-12-29T10:29:11;9.53;;;4.23;;
15706;SDS011;7953;54.302;10.128;2022-12-29T10:31:43;6.40;;;2.43;;
15706;SDS011;7953;54.302;10.128;2022-12-29T10:34:14;7.27;;;3.30;;
15706;SDS011;7953;54.302;10.128;2022-12-29T10:36:48;5.53;;;1.30;;
15706;SDS011;7953;54.302;10.128;2022-12-29T10:39:18;10.63;;;4.43;;
15706;SDS011;7953;54.302;10.128;2022-12-29T10:41:49;6.67;;;2.37;;
15706;SDS011;7953;54.302;10.128;2022-12-29T10:44:21;6.33;;;2.93;;
15706;SDS011;7953;54.302;10.128;2022-12-29T10:46:51;5.00;;;2.00;;
15706;SDS011;7953;54.302;10.128;2022-12-29T10:49:23;5.07;;;1.30;;
15706;SDS011;7953;54.302;10.128;2022-12-29T10:51:54;4.90;;;1.60;;
15706;SDS011;7953;54.302;10.128;2022-12-29T10:54:25;8.10;;;1.93;;
15706;SDS011;7953;54.302;10.128;2022-12-29T10:56:59;5.13;;;1.70;;
15706;SDS011;7953;54.302;10.128;2022-12-29T10:59:29;5.53;;;1.73;;
15706;SDS011;7953;54.302;10.128;2022-12-29T11:01:58;7.10;;;2.33;;
15706;SDS011;7953;54.302;10.128;2022-12-29T11:04:34;10.67;;;3.17;;
15706;SDS011;7953;54.302;10.128;2022-12-29T11:07:10;5.77;;;2.23;;
15706;SDS011;7953;54.302;10.128;2022-12-29T11:09:38;9.07;;;3.40;;
15706;SDS011;7953;54.302;10.128;2022-12-29T11:12:20;3.83;;;2.43;;
15706;SDS011;7953;54.302;10.128;2022-12-29T11:14:54;7.87;;;2.00;;
15706;SDS011;7953;54.302;10.128;2022-12-29T11:17:28;3.07;;;1.33;;
15706;SDS011;7953;54.302;10.128;2022-12-29T11:19:55;8.13;;;2.00;;
15706;SDS011;7953;54.302;10.128;2022-12-29T11:22:24;11.63;;;2.97;;
15706;SDS011;7953;54.302;10.128;2022-12-29T11:24:54;6.47;;;3.63;;
15706;SDS011;7953;54.302;10.128;2022-12-29T11:27:30;10.83;;;5.93;;
15706;SDS011;7953;54.302;10.128;2022-12-29T11:29:58;4.77;;;1.93;;
15706;SDS011;7953;54.302;10.128;2022-12-29T11:32:25;7.40;;;3.73;;
15706;SDS011;7953;54.302;10.128;2022-12-29T11:34:55;5.63;;;2.00;;
15706;SDS011;7953;54.302;10.128;2022-12-29T11:37:25;6.73;;;1.93;;
15706;SDS011;7953;54.302;10.128;2022-12-29T11:39:55;6.63;;;2.93;;
15706;SDS011;7953;54.302;10.128;2022-12-29T11:42:29;6.23;;;1.97;;
15706;SDS011;7953;54.302;10.128;2022-12-29T11:45:02;8.30;;;2.60;;
15706;SDS011;7953;54.302;10.128;2022-12-29T11:47:31;6.50;;;1.50;;
15706;SDS011;7953;54.302;10.128;2022-12-29T11:50:00;5.50;;;1.83;;
15706;SDS011;7953;54.302;10.128;2022-12-29T11:52:31;7.70;;;1.77;;
15706;SDS011;7953;54.302;10.128;2022-12-29T11:55:01;6.03;;;2.07;;
15706;SDS011;7953;54.302;10.128;2022-12-29T11:57:31;8.13;;;2.40;;
15706;SDS011;7953;54.302;10.128;2022-12-29T12:00:01;6.57;;;1.77;;
15706;SDS011;7953;54.302;10.128;2022-12-29T12:02:36;4.47;;;1.70;;
15706;SDS011;7953;54.302;10.128;2022-12-29T12:05:17;9.90;;;1.73;;
15706;SDS011;7953;54.302;10.128;2022-12-29T12:07:52;5.67;;;1.40;;
15706;SDS011;7953;54.302;10.128;2022-12-29T12:10:23;4.47;;;2.13;;
15706;SDS011;7953;54.302;10.128;2022-12-29T12:13:00;4.73;;;2.20;;
15706;SDS011;7953;54.302;10.128;2022-12-29T12:15:34;5.40;;;1.53;;
15706;SDS011;7953;54.302;10.128;2022-12-29T12:18:05;6.83;;;1.93;;
15706;SDS011;7953;54.302;10.128;2022-12-29T12:20:42;4.83;;;1.73;;
15706;SDS011;7953;54.302;10.128;2022-12-29T12:23:14;6.47;;;2.00;;
15706;SDS011;7953;54.302;10.128;2022-12-29T12:25:51;5.80;;;1.77;;
15706;SDS011;7953;54.302;10.128;2022-12-29T12:28:25;4.80;;;1.80;;
15706;SDS011;7953;54.302;10.128;2022-12-29T12:30:58;13.30;;;2.23;;
15706;SDS011;7953;54.302;10.128;2022-12-29T12:33:27;6.13;;;1.60;;
15706;SDS011;7953;54.302;10.128;2022-12-29T12:36:04;4.30;;;2.23;;
15706;SDS011;7953;54.302;10.128;2022-12-29T12:38:52;5.67;;;1.70;;
15706;SDS011;7953;54.302;10.128;2022-12-29T12:41:24;8.33;;;2.10;;
15706;SDS011;7953;54.302;10.128;2022-12-29T12:43:58;4.10;;;1.30;;
15706;SDS011;7953;54.302;10.128;2022-12-29T12:46:37;7.77;;;2.23;;
15706;SDS011;7953;54.302;10.128;2022-12-29T12:49:26;10.53;;;2.80;;
15706;SDS011;7953;54.302;10.128;2022-12-29T12:52:17;5.33;;;2.40;;
15706;SDS011;7953;54.302;10.128;2022-12-29T12:54:59;8.33;;;2.83;;
15706;SDS011;7953;54.302;10.128;2022-12-29T12:57:40;7.57;;;2.00;;
15706;SDS011;7953;54.302;10.128;2022-12-29T13:00:19;9.10;;;4.60;;
15706;SDS011;7953;54.302;10.128;2022-12-29T13:02:51;7.63;;;2.30;;
15706;SDS011;7953;54.302;10.128;2022-12-29T13:05:32;7.43;;;1.90;;
15706;SDS011;7953;54.302;10.128;2022-12-29T13:08:18;5.13;;;2.90;;
15706;SDS011;7953;54.302;10.128;2022-12-29T13:11:10;6.33;;;2.50;;
15706;SDS011;7953;54.302;10.128;2022-12-29T13:13:55;5.87;;;2.67;;
15706;SDS011;7953;54.302;10.128;2022-12-29T13:16:44;5.27;;;2.23;;
15706;SDS011;7953;54.302;10.128;2022-12-29T13:19:17;5.37;;;2.60;;
15706;SDS011;7953;54.302;10.128;2022-12-29T13:21:54;4.80;;;1.90;;
15706;SDS011;7953;54.302;10.128;2022-12-29T13:24:28;7.50;;;2.50;;
15706;SDS011;7953;54.302;10.128;2022-12-29T13:27:03;7.13;;;2.37;;
15706;SDS011;7953;54.302;10.128;2022-12-29T13:29:38;9.13;;;2.40;;
15706;SDS011;7953;54.302;10.128;2022-12-29T13:32:15;6.40;;;2.83;;
15706;SDS011;7953;54.302;10.128;2022-12-29T13:34:50;5.73;;;2.10;;
15706;SDS011;7953;54.302;10.128;2022-12-29T13:37:27;5.40;;;2.50;;
15706;SDS011;7953;54.302;10.128;2022-12-29T13:39:58;8.83;;;2.00;;
15706;SDS011;7953;54.302;10.128;2022-12-29T13:42:30;10.53;;;2.27;;
15706;SDS011;7953;54.302;10.128;2022-12-29T13:44:58;6.97;;;2.10;;
15706;SDS011;7953;54.302;10.128;2022-12-29T13:47:29;5.60;;;2.23;;
15706;SDS011;7953;54.302;10.128;2022-12-29T13:50:01;7.17;;;2.37;;
15706;SDS011;7953;54.302;10.128;2022-12-29T13:52:32;7.73;;;2.80;;
15706;SDS011;7953;54.302;10.128;2022-12-29T13:55:07;6.53;;;2.20;;
15706;SDS011;7953;54.302;10.128;2022-12-29T13:57:51;5.33;;;1.60;;
15706;SDS011;7953;54.302;10.128;2022-12-29T14:00:22;7.07;;;1.90;;
15706;SDS011;7953;54.302;10.128;2022-12-29T14:03:01;10.43;;;1.87;;
15706;SDS011;7953;54.302;10.128;2022-12-29T14:05:43;4.30;;;2.07;;
15706;SDS011;7953;54.302;10.128;2022-12-29T14:08:29;6.17;;;2.17;;
15706;SDS011;7953;54.302;10.128;2022-12-29T14:11:03;9.17;;;2.47;;
15706;SDS011;7953;54.302;10.128;2022-12-29T14:13:37;6.83;;;2.10;;
15706;SDS011;7953;54.302;10.128;2022-12-29T14:16:06;7.73;;;1.93;;
15706;SDS011;7953;54.302;10.128;2022-12-29T14:18:41;12.40;;;2.40;;
15706;SDS011;7953;54.302;10.128;2022-12-29T14:21:10;10.83;;;2.30;;
15706;SDS011;7953;54.302;10.128;2022-12-29T14:23:47;15.43;;;2.97;;
15706;SDS011;7953;54.302;10.128;2022-12-29T14:26:17;11.40;;;2.17;;
15706;SDS011;7953;54.302;10.128;2022-12-29T14:29:15;9.47;;;2.40;;
15706;SDS011;7953;54.302;10.128;2022-12-29T14:32:03;10.87;;;2.60;;
15706;SDS011;7953;54.302;10.128;2022-12-29T14:38:14;13.63;;;2.90;;
15706;SDS011;7953;54.302;10.128;2022-12-29T14:40:42;4.93;;;2.10;;
15706;SDS011;7953;54.302;10.128;2022-12-29T14:43:13;9.13;;;2.20;;
15706;SDS011;7953;54.302;10.128;2022-12-29T14:45:51;12.20;;;2.60;;
15706;SDS011;7953;54.302;10.128;2022-12-29T14:48:28;12.03;;;2.77;;
15706;SDS011;7953;54.302;10.128;2022-12-29T14:51:02;7.50;;;2.83;;
15706;SDS011;7953;54.302;10.128;2022-12-29T14:53:45;8.00;;;2.00;;
15706;SDS011;7953;54.302;10.128;2022-12-29T14:56:14;9.83;;;2.53;;
15706;SDS011;7953;54.302;10.128;2022-12-29T14:58:50;9.63;;;2.77;;
15706;SDS011;7953;54.302;10.128;2022-12-29T15:01:24;8.37;;;2.40;;
15706;SDS011;7953;54.302;10.128;2022-12-29T15:04:03;9.27;;;2.87;;
15706;SDS011;7953;54.302;10.128;2022-12-29T15:06:39;10.43;;;2.67;;
15706;SDS011;7953;54.302;10.128;2022-12-29T15:09:10;8.83;;;2.73;;
15706;SDS011;7953;54.302;10.128;2022-12-29T15:11:44;13.00;;;2.90;;
15706;SDS011;7953;54.302;10.128;2022-12-29T15:14:33;7.83;;;2.33;;
15706;SDS011;7953;54.302;10.128;2022-12-29T15:17:09;8.57;;;3.07;;